createdAt,value
2023-01-31T00:00:16.791Z,5.10
2023-01-31T00:02:45.315Z,6.57
2023-01-31T00:05:15.138Z,6.80
2023-01-31T00:07:43.733Z,7.10
2023-01-31T00:10:12.585Z,7.50
2023-01-31T00:12:40.690Z,7.37
2023-01-31T00:15:10.036Z,7.50
2023-01-31T00:17:38.772Z,7.30
2023-01-31T00:20:08.458Z,7.30
2023-01-31T00:22:38.518Z,8.23
2023-01-31T00:25:07.871Z,7.43
2023-01-31T00:27:36.217Z,7.03
2023-01-31T00:30:05.339Z,8.17
2023-01-31T00:32:33.632Z,8.80
2023-01-31T00:35:01.849Z,7.03
2023-01-31T00:37:29.817Z,6.50
2023-01-31T00:39:59.683Z,6.40
2023-01-31T00:42:27.933Z,6.10
2023-01-31T00:44:58.138Z,6.30
2023-01-31T00:47:26.540Z,5.57
2023-01-31T00:49:54.364Z,5.90
2023-01-31T00:52:25.621Z,5.60
2023-01-31T00:54:53.799Z,5.13
2023-01-31T00:57:23.496Z,5.17
2023-01-31T00:59:52.058Z,6.30
2023-01-31T01:02:20.588Z,5.43
2023-01-31T01:04:48.933Z,5.10
2023-01-31T01:07:17.114Z,5.63
2023-01-31T01:09:45.447Z,5.63
2023-01-31T01:12:13.684Z,5.73
2023-01-31T01:14:43.470Z,5.70
2023-01-31T01:17:11.497Z,6.17
2023-01-31T01:19:40.499Z,7.70
2023-01-31T01:22:08.873Z,6.07
2023-01-31T01:24:37.404Z,5.60
2023-01-31T01:27:05.940Z,6.47
2023-01-31T01:29:34.296Z,6.13
2023-01-31T01:32:04.112Z,6.70
2023-01-31T01:34:37.250Z,5.70
2023-01-31T01:37:11.786Z,6.47
2023-01-31T01:39:40.275Z,6.80
2023-01-31T01:42:13.957Z,5.93
2023-01-31T01:44:53.495Z,6.30
2023-01-31T01:47:36.351Z,6.07
2023-01-31T01:50:10.658Z,6.83
2023-01-31T01:52:41.179Z,6.53
2023-01-31T01:55:16.287Z,7.17
2023-01-31T01:57:45.954Z,6.80
2023-01-31T02:00:17.713Z,5.87
2023-01-31T02:02:47.919Z,6.10
2023-01-31T02:05:19.554Z,7.10
2023-01-31T02:07:48.057Z,7.07
2023-01-31T02:10:19.397Z,7.07
2023-01-31T02:12:47.572Z,7.23
2023-01-31T02:15:19.178Z,6.93
2023-01-31T02:17:50.348Z,5.93
2023-01-31T02:20:36.956Z,6.20
2023-01-31T02:23:24.950Z,7.57
2023-01-31T02:26:14.191Z,6.37
2023-01-31T02:29:16.470Z,7.40
2023-01-31T02:32:13.351Z,4.87
2023-01-31T02:34:47.764Z,6.47
2023-01-31T02:37:21.495Z,5.60
2023-01-31T02:39:58.030Z,6.37
2023-01-31T02:42:34.964Z,6.00
2023-01-31T02:45:08.240Z,6.00
2023-01-31T02:47:49.346Z,5.90
2023-01-31T02:50:22.943Z,5.60
2023-01-31T02:52:54.613Z,6.00
2023-01-31T02:55:45.001Z,7.30
2023-01-31T02:58:17.947Z,7.40
2023-01-31T03:00:47.004Z,6.70
2023-01-31T03:03:21.577Z,8.07
2023-01-31T03:06:11.991Z,6.90
2023-01-31T03:08:43.158Z,6.90
2023-01-31T03:11:12.446Z,6.70
2023-01-31T03:13:48.285Z,7.57
2023-01-31T03:16:42.002Z,7.70
2023-01-31T03:19:16.797Z,7.10
2023-01-31T03:21:47.764Z,6.93
2023-01-31T03:24:18.408Z,7.27
2023-01-31T03:26:47.505Z,7.23
2023-01-31T03:29:17.602Z,7.00
2023-01-31T03:31:49.836Z,7.23
2023-01-31T03:34:19.838Z,7.63
2023-01-31T03:36:52.225Z,7.40
2023-01-31T03:39:39.374Z,8.37
2023-01-31T03:42:15.039Z,7.37
2023-01-31T03:44:50.066Z,7.43
2023-01-31T03:47:20.654Z,7.70
2023-01-31T03:49:52.125Z,7.90
2023-01-31T03:52:24.485Z,7.23
2023-01-31T03:54:55.627Z,7.70
2023-01-31T03:57:27.325Z,7.50
2023-01-31T03:59:59.318Z,6.73
2023-01-31T04:02:34.786Z,7.40
2023-01-31T04:05:09.506Z,7.17
2023-01-31T04:07:41.678Z,7.13
2023-01-31T04:10:15.459Z,7.00
2023-01-31T04:12:43.447Z,6.63
2023-01-31T04:15:12.791Z,7.47
2023-01-31T04:17:41.835Z,7.00
2023-01-31T04:20:13.325Z,7.50
2023-01-31T04:22:42.047Z,5.97
2023-01-31T04:25:11.348Z,6.70
2023-01-31T04:27:40.177Z,6.93
2023-01-31T04:30:10.000Z,6.27
2023-01-31T04:32:38.199Z,6.70
2023-01-31T04:35:07.636Z,5.87
2023-01-31T04:37:37.319Z,5.07
2023-01-31T04:40:06.473Z,6.03
2023-01-31T04:42:34.488Z,5.67
2023-01-31T04:45:02.624Z,5.50
2023-01-31T04:47:30.840Z,6.30
2023-01-31T04:49:59.141Z,4.93
2023-01-31T04:52:27.667Z,6.03
2023-01-31T04:54:57.137Z,5.80
2023-01-31T04:57:28.426Z,6.10
2023-01-31T04:59:56.585Z,5.87
2023-01-31T05:02:25.224Z,6.13
2023-01-31T05:04:53.427Z,4.50
2023-01-31T05:07:21.680Z,4.40
2023-01-31T05:09:50.088Z,5.17
2023-01-31T05:12:19.797Z,4.70
2023-01-31T05:14:48.322Z,4.60
2023-01-31T05:17:16.581Z,4.40
2023-01-31T05:19:48.719Z,4.43
2023-01-31T05:22:17.203Z,4.60
2023-01-31T05:24:45.573Z,4.50
2023-01-31T05:27:13.854Z,4.73
2023-01-31T05:29:43.612Z,4.20
2023-01-31T05:32:11.955Z,5.30
2023-01-31T05:34:40.424Z,5.73
2023-01-31T05:37:08.951Z,5.20
2023-01-31T05:39:37.967Z,4.13
2023-01-31T05:42:06.547Z,4.77
2023-01-31T05:44:35.076Z,4.60
2023-01-31T05:47:04.811Z,5.27
2023-01-31T05:49:34.555Z,4.80
2023-01-31T05:52:03.357Z,4.80
2023-01-31T05:54:32.418Z,5.83
2023-01-31T05:57:01.410Z,5.87
2023-01-31T05:59:32.327Z,6.00
2023-01-31T06:02:01.066Z,5.63
2023-01-31T06:04:30.943Z,5.47
2023-01-31T06:06:59.291Z,5.27
2023-01-31T06:09:27.444Z,5.40
2023-01-31T06:11:55.598Z,5.53
2023-01-31T06:14:23.642Z,5.60
2023-01-31T06:16:51.940Z,5.87
2023-01-31T06:19:21.684Z,5.97
2023-01-31T06:21:51.189Z,5.70
2023-01-31T06:24:19.164Z,6.97
2023-01-31T06:26:47.119Z,5.23
2023-01-31T06:29:15.136Z,5.80
2023-01-31T06:31:45.103Z,5.93
2023-01-31T06:34:13.057Z,6.50
2023-01-31T06:36:40.911Z,5.80
2023-01-31T06:39:11.680Z,7.60
2023-01-31T06:41:39.529Z,6.20
2023-01-31T06:44:07.665Z,6.77
2023-01-31T06:46:35.517Z,6.47
2023-01-31T06:49:03.968Z,5.53
2023-01-31T06:51:31.984Z,7.30
2023-01-31T06:53:59.855Z,7.30
2023-01-31T06:56:29.055Z,6.60
2023-01-31T06:58:57.117Z,7.53
2023-01-31T07:01:26.368Z,7.83
2023-01-31T07:03:54.416Z,7.57
2023-01-31T07:06:22.995Z,7.40
2023-01-31T07:08:50.943Z,6.77
2023-01-31T07:11:18.888Z,7.40
2023-01-31T07:13:48.215Z,7.43
2023-01-31T07:16:17.346Z,8.03
2023-01-31T07:18:45.624Z,6.77
2023-01-31T07:21:13.478Z,7.47
2023-01-31T07:23:42.992Z,7.60
2023-01-31T07:26:10.844Z,8.07
2023-01-31T07:28:38.660Z,8.50
2023-01-31T07:31:10.883Z,9.80
2023-01-31T07:33:39.954Z,9.10
2023-01-31T07:36:09.424Z,12.47
2023-01-31T07:38:37.276Z,8.50
2023-01-31T07:41:05.982Z,9.20
2023-01-31T07:43:33.903Z,10.13
2023-01-31T07:46:01.935Z,8.40
2023-01-31T07:48:31.195Z,11.00
2023-01-31T07:51:03.387Z,11.20
2023-01-31T07:53:33.312Z,10.67
2023-01-31T07:56:10.083Z,10.27
2023-01-31T07:58:38.245Z,10.63
2023-01-31T08:01:29.854Z,10.50
2023-01-31T08:04:10.595Z,9.10
2023-01-31T08:06:46.718Z,11.33
2023-01-31T08:09:14.731Z,10.97
2023-01-31T08:11:42.767Z,10.43
2023-01-31T08:14:10.653Z,12.63
2023-01-31T08:16:38.725Z,12.50
2023-01-31T08:19:08.028Z,8.27
2023-01-31T08:21:35.904Z,12.40
2023-01-31T08:24:03.939Z,10.20
2023-01-31T08:26:32.020Z,10.27
2023-01-31T08:29:00.151Z,9.90
2023-01-31T08:31:29.538Z,9.90
2023-01-31T08:33:57.823Z,8.80
2023-01-31T08:36:29.719Z,9.70
2023-01-31T08:38:57.703Z,8.23
2023-01-31T08:41:26.675Z,7.50
2023-01-31T08:43:58.079Z,10.63
2023-01-31T08:46:27.829Z,10.03
2023-01-31T08:48:55.871Z,9.57
2023-01-31T08:51:24.148Z,8.20
2023-01-31T08:53:53.603Z,9.33
2023-01-31T08:56:25.452Z,9.60
2023-01-31T08:58:54.248Z,8.20
2023-01-31T09:01:22.795Z,8.60
2023-01-31T09:03:56.306Z,8.43
2023-01-31T09:06:25.948Z,7.70
2023-01-31T09:08:56.534Z,8.07
2023-01-31T09:11:24.387Z,9.20
2023-01-31T09:13:52.308Z,7.50
2023-01-31T09:16:21.064Z,7.03
2023-01-31T09:18:49.294Z,6.47
2023-01-31T09:21:18.564Z,6.47
2023-01-31T09:23:47.130Z,7.70
2023-01-31T09:26:17.238Z,8.03
2023-01-31T09:28:45.604Z,7.43
2023-01-31T09:31:19.026Z,7.13
2023-01-31T09:33:46.929Z,7.03
2023-01-31T09:36:16.486Z,6.53
2023-01-31T09:38:44.359Z,6.17
2023-01-31T09:41:25.107Z,6.93
2023-01-31T09:43:55.430Z,6.30
2023-01-31T09:46:26.869Z,6.20
2023-01-31T09:48:56.557Z,6.97
2023-01-31T09:51:25.076Z,6.90
2023-01-31T09:53:52.971Z,6.60
2023-01-31T09:56:28.329Z,7.10
2023-01-31T09:59:01.100Z,7.00
2023-01-31T10:01:32.986Z,5.10
2023-01-31T10:04:10.564Z,6.67
2023-01-31T10:06:45.192Z,7.40
2023-01-31T10:09:17.424Z,7.57
2023-01-31T10:11:49.958Z,7.20
2023-01-31T10:14:25.448Z,6.53
2023-01-31T10:17:01.913Z,5.80
2023-01-31T10:19:33.368Z,7.33
2023-01-31T10:22:05.191Z,7.47
2023-01-31T10:24:36.587Z,5.27
2023-01-31T10:27:09.640Z,8.10
2023-01-31T10:29:39.923Z,8.50
2023-01-31T10:32:16.637Z,8.33
2023-01-31T10:34:47.149Z,7.00
2023-01-31T10:37:19.214Z,8.40
2023-01-31T10:39:49.375Z,6.57
2023-01-31T10:42:23.564Z,7.47
2023-01-31T10:44:53.882Z,7.83
2023-01-31T10:47:23.797Z,9.10
2023-01-31T10:49:52.110Z,6.10
2023-01-31T10:52:36.380Z,6.20
2023-01-31T10:55:12.159Z,8.80
2023-01-31T10:57:41.509Z,8.13
2023-01-31T11:00:15.505Z,7.87
2023-01-31T11:02:43.339Z,6.17
2023-01-31T11:05:17.281Z,7.57
2023-01-31T11:07:45.247Z,6.60
2023-01-31T11:10:24.707Z,8.57
2023-01-31T11:13:01.835Z,8.50
2023-01-31T11:15:30.985Z,7.80
2023-01-31T11:18:01.084Z,6.33
2023-01-31T11:20:31.354Z,8.13
2023-01-31T11:23:01.598Z,7.40
2023-01-31T11:25:31.759Z,6.13
2023-01-31T11:28:02.636Z,6.10
2023-01-31T11:30:32.928Z,7.10
2023-01-31T11:33:00.793Z,5.97
2023-01-31T11:35:30.696Z,8.60
2023-01-31T11:37:59.767Z,7.40
2023-01-31T11:40:31.298Z,7.13
2023-01-31T11:43:02.095Z,5.73
2023-01-31T11:45:32.210Z,8.20
2023-01-31T11:48:08.252Z,8.40
2023-01-31T11:50:39.264Z,8.47
2023-01-31T11:53:17.364Z,7.83
2023-01-31T11:55:45.991Z,7.40
2023-01-31T11:58:22.816Z,8.00
2023-01-31T12:00:55.625Z,7.77
2023-01-31T12:03:23.930Z,9.00
2023-01-31T12:05:53.490Z,8.13
2023-01-31T12:08:30.701Z,6.67
2023-01-31T12:10:59.041Z,7.70
2023-01-31T12:13:29.150Z,8.53
2023-01-31T12:15:58.992Z,6.10
2023-01-31T12:18:38.213Z,8.20
2023-01-31T12:21:14.126Z,8.83
2023-01-31T12:23:51.604Z,8.00
2023-01-31T12:26:23.431Z,6.07
2023-01-31T12:29:10.885Z,5.10
2023-01-31T12:31:52.350Z,8.23
2023-01-31T12:34:34.129Z,8.17
2023-01-31T12:37:13.161Z,7.33
2023-01-31T12:39:48.849Z,7.30
2023-01-31T12:42:29.414Z,6.57
2023-01-31T12:45:08.600Z,8.33
2023-01-31T12:47:50.643Z,7.20
2023-01-31T12:50:27.430Z,7.07
2023-01-31T12:53:23.039Z,7.00
2023-01-31T12:55:58.022Z,7.83
2023-01-31T12:58:40.526Z,8.73
2023-01-31T13:01:12.135Z,7.97
2023-01-31T13:03:50.182Z,6.27
2023-01-31T13:06:20.719Z,7.63
2023-01-31T13:09:06.870Z,6.63
2023-01-31T13:11:40.069Z,7.23
2023-01-31T13:14:14.145Z,7.70
2023-01-31T13:16:45.528Z,5.90
2023-01-31T13:19:17.304Z,7.30
2023-01-31T13:21:47.473Z,7.23
2023-01-31T13:24:19.098Z,6.30
2023-01-31T13:26:49.000Z,7.27
2023-01-31T13:29:20.515Z,7.40
2023-01-31T13:31:55.527Z,7.07
2023-01-31T13:34:25.721Z,6.20
2023-01-31T13:36:56.368Z,7.40
2023-01-31T13:39:28.332Z,7.10
2023-01-31T13:41:56.292Z,6.30
2023-01-31T13:44:24.132Z,7.40
2023-01-31T13:46:58.037Z,7.90
2023-01-31T13:49:28.879Z,6.53
2023-01-31T13:51:58.972Z,6.60
2023-01-31T13:54:29.160Z,6.60
2023-01-31T13:56:58.887Z,7.00
2023-01-31T13:59:28.989Z,7.10
2023-01-31T14:02:00.650Z,6.57
2023-01-31T14:04:37.828Z,6.80
2023-01-31T14:07:21.958Z,6.03
2023-01-31T14:10:34.297Z,6.87
2023-01-31T14:13:25.176Z,7.33
2023-01-31T14:15:54.039Z,7.73
2023-01-31T14:18:43.721Z,7.40
2023-01-31T14:21:53.492Z,6.93
2023-01-31T14:25:05.590Z,6.73
2023-01-31T14:27:39.628Z,7.53
2023-01-31T14:30:19.907Z,7.23
2023-01-31T14:32:49.571Z,7.30
2023-01-31T14:35:33.411Z,7.30
2023-01-31T14:38:09.618Z,8.20
2023-01-31T14:40:43.864Z,7.47
2023-01-31T14:43:23.405Z,7.00
2023-01-31T14:46:07.167Z,7.43
2023-01-31T14:49:05.744Z,7.73
2023-01-31T14:51:42.175Z,8.07
2023-01-31T14:54:19.556Z,8.00
2023-01-31T14:56:55.689Z,8.13
2023-01-31T14:59:30.938Z,8.70
2023-01-31T15:02:16.307Z,7.80
2023-01-31T15:04:44.173Z,9.33
2023-01-31T15:07:17.288Z,8.90
2023-01-31T15:09:46.656Z,8.93
2023-01-31T15:12:52.166Z,10.20
2023-01-31T15:15:26.906Z,9.70
2023-01-31T15:17:57.469Z,9.87
2023-01-31T15:20:30.069Z,10.00
2023-01-31T15:23:04.861Z,10.70
2023-01-31T15:25:34.955Z,9.57
2023-01-31T15:28:03.976Z,10.00
2023-01-31T15:30:34.849Z,9.63
2023-01-31T15:33:08.077Z,10.60
2023-01-31T15:35:38.585Z,11.17
2023-01-31T15:38:22.762Z,10.63
2023-01-31T15:41:07.340Z,9.37
2023-01-31T15:43:38.928Z,10.00
2023-01-31T15:46:23.134Z,11.97
2023-01-31T15:48:51.364Z,12.47
2023-01-31T15:51:19.886Z,12.20
2023-01-31T15:53:49.398Z,13.10
2023-01-31T15:56:21.119Z,10.80
2023-01-31T15:58:51.374Z,12.87
2023-01-31T16:01:19.570Z,12.30
2023-01-31T16:03:52.815Z,11.23
2023-01-31T16:06:25.189Z,13.13
2023-01-31T16:09:00.909Z,12.53
2023-01-31T16:11:33.248Z,11.27
2023-01-31T16:14:03.375Z,11.50
2023-01-31T16:16:31.766Z,11.00
2023-01-31T16:19:00.925Z,11.57
2023-01-31T16:21:32.932Z,12.13
2023-01-31T16:24:04.234Z,11.20
2023-01-31T16:26:34.898Z,11.57
2023-01-31T16:29:09.177Z,10.97
2023-01-31T16:31:47.931Z,14.20
2023-01-31T16:34:24.223Z,10.90
2023-01-31T16:36:57.269Z,10.03
2023-01-31T16:39:34.999Z,10.80
2023-01-31T16:42:04.204Z,11.77
2023-01-31T16:44:36.006Z,10.50
2023-01-31T16:47:04.714Z,9.73
2023-01-31T16:49:35.515Z,10.57
2023-01-31T16:52:18.912Z,12.10
2023-01-31T16:54:51.217Z,11.20
2023-01-31T16:57:25.883Z,11.07
2023-01-31T16:59:54.877Z,11.00
2023-01-31T17:02:25.935Z,10.67
2023-01-31T17:04:56.265Z,10.40
2023-01-31T17:07:26.496Z,11.17
2023-01-31T17:09:57.650Z,10.47
2023-01-31T17:12:28.397Z,11.10
2023-01-31T17:15:00.821Z,10.20
2023-01-31T17:17:32.816Z,10.00
2023-01-31T17:20:00.840Z,10.60
2023-01-31T17:22:28.768Z,10.43
2023-01-31T17:24:57.925Z,9.70
2023-01-31T17:27:25.975Z,9.23
2023-01-31T17:29:53.792Z,9.60
2023-01-31T17:32:22.074Z,9.90
2023-01-31T17:34:50.000Z,11.47
2023-01-31T17:37:26.578Z,11.63
2023-01-31T17:40:00.828Z,10.87
2023-01-31T17:42:28.790Z,10.10
2023-01-31T17:44:56.732Z,10.63
2023-01-31T17:47:26.902Z,9.40
2023-01-31T17:49:55.579Z,10.03
2023-01-31T17:52:23.411Z,9.40
2023-01-31T17:54:51.270Z,9.93
2023-01-31T17:57:20.716Z,9.10
2023-01-31T17:59:48.580Z,9.43
2023-01-31T18:02:16.531Z,9.33
2023-01-31T18:04:44.375Z,9.87
2023-01-31T18:07:16.283Z,9.20
2023-01-31T18:09:44.187Z,9.90
2023-01-31T18:12:12.087Z,9.30
2023-01-31T18:14:41.436Z,10.33
2023-01-31T18:17:09.817Z,9.07
2023-01-31T18:19:37.914Z,8.93
2023-01-31T18:22:05.756Z,9.77
2023-01-31T18:24:33.879Z,9.83
2023-01-31T18:27:01.730Z,10.03
2023-01-31T18:29:29.898Z,9.70
2023-01-31T18:32:02.507Z,9.23
2023-01-31T18:34:30.940Z,8.90
2023-01-31T18:36:58.733Z,9.33
2023-01-31T18:39:26.602Z,9.00
2023-01-31T18:41:54.610Z,8.63
2023-01-31T18:44:22.589Z,8.90
2023-01-31T18:46:50.513Z,9.13
2023-01-31T18:49:20.218Z,9.17
2023-01-31T18:51:49.687Z,8.10
2023-01-31T18:54:18.305Z,9.20
2023-01-31T18:56:46.161Z,8.90
2023-01-31T18:59:14.030Z,8.47
2023-01-31T19:01:43.559Z,8.27
2023-01-31T19:04:11.764Z,9.30
2023-01-31T19:06:42.004Z,8.90
2023-01-31T19:09:10.546Z,8.63
2023-01-31T19:11:40.327Z,8.90
2023-01-31T19:14:09.075Z,8.50
2023-01-31T19:16:40.208Z,9.07
2023-01-31T19:19:08.803Z,8.80
2023-01-31T19:21:38.101Z,9.30
2023-01-31T19:24:10.302Z,10.00
2023-01-31T19:26:38.316Z,8.67
2023-01-31T19:29:09.580Z,8.17
2023-01-31T19:31:38.015Z,9.47
2023-01-31T19:34:07.000Z,9.37
2023-01-31T19:36:36.506Z,8.33
2023-01-31T19:39:07.393Z,8.30
2023-01-31T19:41:35.571Z,8.47
2023-01-31T19:44:04.435Z,8.33
2023-01-31T19:46:36.751Z,9.47
2023-01-31T19:49:05.104Z,8.17
2023-01-31T19:51:33.622Z,8.40
2023-01-31T19:54:02.991Z,7.80
2023-01-31T19:56:33.167Z,7.73
2023-01-31T19:59:02.740Z,7.17
2023-01-31T20:01:33.743Z,7.27
2023-01-31T20:04:02.262Z,6.77
2023-01-31T20:06:31.611Z,8.10
2023-01-31T20:09:01.251Z,6.80
2023-01-31T20:11:30.549Z,6.77
2023-01-31T20:14:00.537Z,7.03
2023-01-31T20:16:29.152Z,6.20
2023-01-31T20:18:57.685Z,6.40
2023-01-31T20:21:26.128Z,6.47
2023-01-31T20:23:54.860Z,5.70
2023-01-31T20:26:24.544Z,6.03
2023-01-31T20:28:53.195Z,7.07
2023-01-31T20:31:23.693Z,6.00
2023-01-31T20:33:54.867Z,6.60
2023-01-31T20:36:24.673Z,6.37
2023-01-31T20:38:53.675Z,5.67
2023-01-31T20:41:22.572Z,5.93
2023-01-31T20:43:51.705Z,6.10
2023-01-31T20:46:20.498Z,6.10
2023-01-31T20:48:50.704Z,5.90
2023-01-31T20:51:19.150Z,6.17
2023-01-31T20:53:47.703Z,6.27
2023-01-31T20:56:16.528Z,6.13
2023-01-31T20:58:44.870Z,6.17
2023-01-31T21:01:13.802Z,6.00
2023-01-31T21:03:42.780Z,6.37
2023-01-31T21:06:13.679Z,5.80
2023-01-31T21:08:42.549Z,6.40
2023-01-31T21:11:12.608Z,6.23
2023-01-31T21:13:45.238Z,6.23
2023-01-31T21:16:16.875Z,6.13
2023-01-31T21:18:45.714Z,5.47
2023-01-31T21:21:23.163Z,5.73
2023-01-31T21:23:53.251Z,5.80
2023-01-31T21:26:27.530Z,4.97
2023-01-31T21:28:56.020Z,5.20
2023-01-31T21:31:24.580Z,4.90
2023-01-31T21:33:54.057Z,5.40
2023-01-31T21:36:26.148Z,5.20
2023-01-31T21:38:54.864Z,5.30
2023-01-31T21:41:41.076Z,3.97
2023-01-31T21:44:11.736Z,4.43
2023-01-31T21:46:40.828Z,4.37
2023-01-31T21:49:09.677Z,4.50
2023-01-31T21:51:42.769Z,4.63
2023-01-31T21:54:11.124Z,4.63
2023-01-31T21:56:39.655Z,4.40
2023-01-31T21:59:08.021Z,4.10
2023-01-31T22:01:37.541Z,4.50
2023-01-31T22:04:06.428Z,4.80
2023-01-31T22:06:37.097Z,4.60
2023-01-31T22:09:07.764Z,4.33
2023-01-31T22:11:36.519Z,4.20
2023-01-31T22:14:07.483Z,4.70
2023-01-31T22:16:36.069Z,4.80
2023-01-31T22:19:04.681Z,4.73
2023-01-31T22:21:34.982Z,5.00
2023-01-31T22:24:05.023Z,5.70
2023-01-31T22:26:39.652Z,4.80
2023-01-31T22:29:10.616Z,5.20
2023-01-31T22:31:39.124Z,5.03
2023-01-31T22:34:08.862Z,4.90
2023-01-31T22:36:37.290Z,4.60
2023-01-31T22:39:05.992Z,5.00
2023-01-31T22:41:35.807Z,4.60
2023-01-31T22:44:04.533Z,5.07
2023-01-31T22:46:32.638Z,4.80
2023-01-31T22:49:00.647Z,5.23
2023-01-31T22:51:29.924Z,4.83
2023-01-31T22:53:58.581Z,4.70
2023-01-31T22:56:28.476Z,5.00
2023-01-31T22:58:58.523Z,4.80
2023-01-31T23:01:28.238Z,5.20
2023-01-31T23:03:57.736Z,4.93
2023-01-31T23:06:26.168Z,5.30
2023-01-31T23:08:54.251Z,4.70
2023-01-31T23:11:22.416Z,5.33
2023-01-31T23:13:50.380Z,5.07
2023-01-31T23:16:21.664Z,6.13
2023-01-31T23:18:49.629Z,5.20
2023-01-31T23:21:19.562Z,4.77
2023-01-31T23:23:47.469Z,5.30
2023-01-31T23:26:15.721Z,5.90
2023-01-31T23:28:43.685Z,5.80
2023-01-31T23:31:11.758Z,7.20
2023-01-31T23:33:41.071Z,6.50
2023-01-31T23:36:09.664Z,6.07
2023-01-31T23:38:37.578Z,5.97
2023-01-31T23:41:07.093Z,6.57
2023-01-31T23:43:35.367Z,6.20
2023-01-31T23:46:03.577Z,6.73
2023-01-31T23:48:31.516Z,5.90
2023-01-31T23:51:04.827Z,6.00
2023-01-31T23:53:32.780Z,6.13
2023-01-31T23:56:00.787Z,6.90
2023-01-31T23:58:28.929Z,6.53
